createdAt,value
2022-10-16T00:00:11.788Z,13.6
2022-10-16T00:03:11.701Z,13.5
2022-10-16T00:06:11.767Z,13.5
2022-10-16T00:09:11.800Z,13.4
2022-10-16T00:12:12.164Z,13.4
2022-10-16T00:15:12.315Z,13.3
2022-10-16T00:18:11.742Z,13.1
2022-10-16T00:21:11.795Z,13.1
2022-10-16T00:24:22.189Z,13.1
2022-10-16T00:27:12.235Z,13.1
2022-10-16T00:30:12.370Z,13
2022-10-16T00:33:12.074Z,13
2022-10-16T00:36:12.604Z,12.9
2022-10-16T00:42:11.824Z,12.8
2022-10-16T00:45:11.711Z,12.8
2022-10-16T00:48:12.990Z,12.8
2022-10-16T00:51:11.783Z,12.8
2022-10-16T00:54:11.682Z,12.8
2022-10-16T00:57:12.125Z,12.8
2022-10-16T01:00:13.503Z,12.8
2022-10-16T01:03:11.725Z,12.6
2022-10-16T01:06:11.790Z,12.6
2022-10-16T01:09:11.773Z,12.5
2022-10-16T01:12:11.757Z,12.5
2022-10-16T01:15:12.114Z,12.5
2022-10-16T01:18:11.701Z,12.5
2022-10-16T01:21:11.848Z,12.5
2022-10-16T01:24:11.717Z,12.5
2022-10-16T01:27:11.764Z,12.5
2022-10-16T01:30:13.055Z,12.5
2022-10-16T01:33:11.695Z,12.5
2022-10-16T01:36:12.765Z,12.4
2022-10-16T01:39:11.797Z,12.4
2022-10-16T01:42:12.556Z,12.4
2022-10-16T01:45:12.036Z,12.4
2022-10-16T01:48:11.825Z,12.4
2022-10-16T01:51:11.871Z,12.4
2022-10-16T01:54:11.643Z,12.4
2022-10-16T01:57:11.690Z,12.4
2022-10-16T02:00:11.966Z,12.2
2022-10-16T02:03:11.747Z,12.4
2022-10-16T02:06:11.696Z,12.4
2022-10-16T02:09:11.772Z,12.4
2022-10-16T02:12:11.726Z,12.4
2022-10-16T02:15:11.794Z,12.4
2022-10-16T02:18:11.683Z,12.4
2022-10-16T02:21:11.702Z,12.4
2022-10-16T02:24:11.775Z,12.5
2022-10-16T02:27:11.696Z,12.6
2022-10-16T02:30:11.764Z,12.6
2022-10-16T02:33:11.681Z,12.8
2022-10-16T02:36:11.681Z,12.8
2022-10-16T02:39:11.718Z,12.9
2022-10-16T02:42:11.781Z,13
2022-10-16T02:45:11.725Z,13
2022-10-16T02:48:11.758Z,13.1
2022-10-16T02:51:11.693Z,13.1
2022-10-16T02:54:11.738Z,13.3
2022-10-16T02:57:11.684Z,13.3
2022-10-16T03:00:11.778Z,13.3
2022-10-16T03:03:11.733Z,13.4
2022-10-16T03:06:11.715Z,13.4
2022-10-16T03:09:11.660Z,13.4
2022-10-16T03:12:11.703Z,13.4
2022-10-16T03:15:11.683Z,13.4
2022-10-16T03:18:11.730Z,13.4
2022-10-16T03:21:11.721Z,13.3
2022-10-16T03:24:11.733Z,13.3
2022-10-16T03:27:11.690Z,13.1
2022-10-16T03:30:11.700Z,13
2022-10-16T03:33:11.744Z,13
2022-10-16T03:36:11.727Z,12.9
2022-10-16T03:39:11.689Z,12.9
2022-10-16T03:42:11.686Z,12.8
2022-10-16T03:45:11.642Z,12.6
2022-10-16T03:48:11.725Z,12.5
2022-10-16T03:51:11.680Z,12.5
2022-10-16T03:54:11.695Z,12.4
2022-10-16T03:57:11.759Z,12.2
2022-10-16T04:00:11.846Z,12.1
2022-10-16T04:03:11.676Z,12
2022-10-16T04:06:11.674Z,11.9
2022-10-16T04:09:11.771Z,11.8
2022-10-16T04:12:11.824Z,11.6
2022-10-16T04:15:11.678Z,11.6
2022-10-16T04:18:11.706Z,11.8
2022-10-16T04:21:12.055Z,11.9
2022-10-16T04:24:11.722Z,12
2022-10-16T04:27:11.935Z,11.9
2022-10-16T04:30:11.733Z,11.8
2022-10-16T04:36:11.791Z,11.6
2022-10-16T04:39:11.687Z,11.5
2022-10-16T04:42:11.684Z,11.5
2022-10-16T04:45:18.576Z,11.5
2022-10-16T04:48:11.767Z,11.6
2022-10-16T04:51:11.696Z,11.6
2022-10-16T04:54:11.687Z,11.6
2022-10-16T04:57:11.674Z,11.8
2022-10-16T05:00:11.749Z,11.6
2022-10-16T05:03:12.615Z,11.6
2022-10-16T05:06:11.748Z,11.6
2022-10-16T05:09:11.768Z,11.6
2022-10-16T05:12:11.741Z,11.5
2022-10-16T05:15:11.713Z,11.5
2022-10-16T05:18:11.708Z,11.5
2022-10-16T05:21:11.701Z,11.5
2022-10-16T05:24:11.705Z,11.5
2022-10-16T05:27:11.672Z,11.5
2022-10-16T05:30:17.025Z,11.5
2022-10-16T05:33:11.871Z,11.5
2022-10-16T05:36:11.737Z,11.5
2022-10-16T05:39:11.674Z,11.6
2022-10-16T05:42:11.642Z,11.6
2022-10-16T05:45:11.644Z,11.8
2022-10-16T05:48:11.696Z,11.8
2022-10-16T05:51:11.674Z,11.8
2022-10-16T05:54:11.652Z,11.9
2022-10-16T05:57:11.637Z,11.9
2022-10-16T06:00:11.716Z,11.9
2022-10-16T06:03:11.719Z,11.9
2022-10-16T06:06:16.836Z,11.9
2022-10-16T06:09:11.676Z,11.9
2022-10-16T06:12:11.732Z,11.9
2022-10-16T06:15:11.842Z,12
2022-10-16T06:18:11.730Z,12
2022-10-16T06:21:11.680Z,12.4
2022-10-16T06:24:11.698Z,12.6
2022-10-16T06:27:11.792Z,13
2022-10-16T06:30:11.750Z,13.5
2022-10-16T06:33:11.713Z,14
2022-10-16T06:36:11.731Z,14.4
2022-10-16T06:39:11.694Z,14.5
2022-10-16T06:45:11.676Z,14.7
2022-10-16T06:48:11.706Z,15
2022-10-16T06:51:11.861Z,15.1
2022-10-16T06:54:15.532Z,15.1
2022-10-16T06:57:11.691Z,15.3
2022-10-16T07:00:11.709Z,15.3
2022-10-16T07:03:11.684Z,15.3
2022-10-16T07:06:11.688Z,15.3
2022-10-16T07:09:11.680Z,15.3
2022-10-16T07:12:11.669Z,15.3
2022-10-16T07:15:11.719Z,15.4
2022-10-16T07:18:11.695Z,15.4
2022-10-16T07:21:11.721Z,15.3
2022-10-16T07:24:11.707Z,15.3
2022-10-16T07:27:11.653Z,15.5
2022-10-16T07:30:19.242Z,16
2022-10-16T07:33:11.598Z,16.1
2022-10-16T07:36:16.534Z,16.4
2022-10-16T07:39:11.860Z,16.6
2022-10-16T07:42:11.649Z,16.6
2022-10-16T07:45:11.659Z,16.8
2022-10-16T07:48:11.763Z,17
2022-10-16T07:51:11.671Z,17.2
2022-10-16T07:54:11.698Z,17.6
2022-10-16T07:57:11.709Z,18.4
2022-10-16T08:00:11.838Z,20.5
2022-10-16T08:03:11.690Z,23.6
2022-10-16T08:06:11.691Z,23.6
2022-10-16T08:09:11.699Z,24.6
2022-10-16T08:12:13.631Z,27.5
2022-10-16T08:15:11.708Z,30.4
2022-10-16T08:18:11.729Z,32.4
2022-10-16T08:21:11.687Z,30.4
2022-10-16T08:24:11.727Z,27.2
2022-10-16T08:27:11.660Z,25.5
2022-10-16T08:30:11.739Z,25.5
2022-10-16T08:33:11.675Z,29.4
2022-10-16T08:36:11.695Z,32.4
2022-10-16T08:39:11.693Z,30.8
2022-10-16T08:42:11.696Z,29.8
2022-10-16T08:45:11.797Z,30.8
2022-10-16T08:48:12.039Z,33.2
2022-10-16T08:51:11.665Z,30.6
2022-10-16T08:54:11.964Z,29
2022-10-16T08:57:11.715Z,27.2
2022-10-16T09:00:11.838Z,26.1
2022-10-16T09:03:11.688Z,25.6
2022-10-16T09:06:11.678Z,24.7
2022-10-16T09:09:11.672Z,24
2022-10-16T09:12:11.725Z,23.7
2022-10-16T09:15:11.735Z,23.7
2022-10-16T09:18:11.976Z,24
2022-10-16T09:21:11.684Z,24.1
2022-10-16T09:24:11.681Z,24
2022-10-16T09:27:11.708Z,24.5
2022-10-16T09:30:11.719Z,23.9
2022-10-16T09:33:11.717Z,23.7
2022-10-16T09:36:11.656Z,24
2022-10-16T09:39:11.760Z,24.4
2022-10-16T09:42:11.634Z,24
2022-10-16T09:45:11.664Z,23.5
2022-10-16T09:48:12.590Z,23.4
2022-10-16T09:51:11.660Z,22.9
2022-10-16T09:54:11.735Z,22.6
2022-10-16T09:57:11.678Z,22.6
2022-10-16T10:00:11.992Z,22.4
2022-10-16T10:03:11.729Z,22.2
2022-10-16T10:06:13.368Z,23.4
2022-10-16T10:09:11.710Z,27.2
2022-10-16T10:12:11.772Z,31.2
2022-10-16T10:15:11.723Z,34
2022-10-16T10:18:11.776Z,36.2
2022-10-16T10:21:11.816Z,37.7
2022-10-16T10:24:11.718Z,38.9
2022-10-16T10:27:11.728Z,39.4
2022-10-16T10:30:12.199Z,39.7
2022-10-16T10:33:11.696Z,39.7
2022-10-16T10:36:11.812Z,38.4
2022-10-16T10:39:11.915Z,40
2022-10-16T10:42:11.764Z,40.2
2022-10-16T10:45:11.852Z,40.9
2022-10-16T10:48:11.733Z,39.5
2022-10-16T10:51:11.760Z,38.9
2022-10-16T10:54:11.819Z,37.9
2022-10-16T10:57:11.827Z,36.7
2022-10-16T11:00:11.740Z,39
2022-10-16T11:03:11.698Z,41.1
2022-10-16T11:06:11.836Z,42.5
2022-10-16T11:09:12.725Z,43.4
2022-10-16T11:12:11.687Z,38.1
2022-10-16T11:15:11.760Z,38.1
2022-10-16T11:18:11.682Z,39.4
2022-10-16T11:21:11.727Z,36.4
2022-10-16T11:24:11.800Z,36.9
2022-10-16T11:27:11.715Z,38.5
2022-10-16T11:30:11.767Z,39.4
2022-10-16T11:33:11.688Z,37
2022-10-16T11:36:11.760Z,37.1
2022-10-16T11:39:11.687Z,38.6
2022-10-16T11:42:11.754Z,39.4
2022-10-16T11:45:11.664Z,39.9
2022-10-16T11:48:13.112Z,40.4
2022-10-16T11:51:11.678Z,40.8
2022-10-16T11:54:12.094Z,40.9
2022-10-16T11:57:11.734Z,41.1
2022-10-16T12:00:11.818Z,41.5
2022-10-16T12:03:12.074Z,41.5
2022-10-16T12:06:11.729Z,41.6
2022-10-16T12:09:11.812Z,41.9
2022-10-16T12:12:11.839Z,42.1
2022-10-16T12:18:11.737Z,42.2
2022-10-16T12:21:11.761Z,42.4
2022-10-16T12:24:11.710Z,42.4
2022-10-16T12:27:11.730Z,42.5
2022-10-16T12:30:11.886Z,42.6
2022-10-16T12:33:11.782Z,43.1
2022-10-16T12:36:11.782Z,42.7
2022-10-16T12:39:11.767Z,36.6
2022-10-16T12:42:11.824Z,38.5
2022-10-16T12:45:11.708Z,38.2
2022-10-16T12:48:11.742Z,37.5
2022-10-16T12:51:11.772Z,38.9
2022-10-16T12:54:11.743Z,35.7
2022-10-16T12:57:11.733Z,34.6
2022-10-16T13:00:11.815Z,34
2022-10-16T13:03:17.101Z,36.9
2022-10-16T13:06:11.715Z,38.5
2022-10-16T13:09:11.738Z,37.5
2022-10-16T13:12:11.700Z,34.5
2022-10-16T13:15:11.726Z,37
2022-10-16T13:18:11.667Z,36.7
2022-10-16T13:21:11.723Z,38.6
2022-10-16T13:24:11.716Z,40
2022-10-16T13:27:11.720Z,40.9
2022-10-16T13:30:11.828Z,41.2
2022-10-16T13:33:11.807Z,41.5
2022-10-16T13:36:11.640Z,41.5
2022-10-16T13:39:11.679Z,39.9
2022-10-16T13:42:20.124Z,40.1
2022-10-16T13:45:11.733Z,40.1
2022-10-16T13:48:11.733Z,40.5
2022-10-16T13:51:11.919Z,40.6
2022-10-16T13:54:11.762Z,38.1
2022-10-16T13:57:38.093Z,39.4
2022-10-16T14:00:12.091Z,39.9
2022-10-16T14:03:11.735Z,37.6
2022-10-16T14:06:11.814Z,37.4
2022-10-16T14:09:11.731Z,37.1
2022-10-16T14:12:11.742Z,38
2022-10-16T14:15:11.778Z,36.6
2022-10-16T14:18:11.718Z,34.2
2022-10-16T14:21:13.033Z,30.6
2022-10-16T14:24:12.037Z,28.1
2022-10-16T14:27:11.779Z,26.2
2022-10-16T14:30:11.837Z,25
2022-10-16T14:33:11.795Z,24.5
2022-10-16T14:36:11.766Z,24
2022-10-16T14:39:11.806Z,23.3
2022-10-16T14:42:11.729Z,22.6
2022-10-16T14:45:11.796Z,22.9
2022-10-16T14:48:13.048Z,22.5
2022-10-16T14:51:11.767Z,25.9
2022-10-16T14:54:11.843Z,26.5
2022-10-16T14:57:11.766Z,24.6
2022-10-16T15:00:11.874Z,24.4
2022-10-16T15:03:11.714Z,24.3
2022-10-16T15:06:11.757Z,25.4
2022-10-16T15:09:11.737Z,25
2022-10-16T15:12:11.798Z,25.1
2022-10-16T15:15:11.721Z,24.5
2022-10-16T15:18:11.753Z,23.6
2022-10-16T15:21:11.702Z,22.6
2022-10-16T15:24:11.701Z,21.8
2022-10-16T15:27:11.680Z,21.1
2022-10-16T15:30:11.885Z,20.6
2022-10-16T15:33:11.676Z,20.3
2022-10-16T15:36:11.798Z,19.9
2022-10-16T15:39:11.713Z,19.5
2022-10-16T15:42:11.887Z,19.3
2022-10-16T15:45:11.800Z,18.9
2022-10-16T15:48:11.846Z,18.5
2022-10-16T15:51:11.975Z,18.1
2022-10-16T15:54:11.989Z,17.8
2022-10-16T15:57:11.736Z,17.5
2022-10-16T16:00:19.486Z,17.2
2022-10-16T16:03:12.334Z,16.9
2022-10-16T16:06:11.730Z,16.6
2022-10-16T16:09:11.942Z,16.3
2022-10-16T16:12:11.690Z,15.9
2022-10-16T16:15:16.891Z,15.5
2022-10-16T16:18:13.172Z,15.3
2022-10-16T16:21:11.663Z,15
2022-10-16T16:24:11.929Z,14.7
2022-10-16T16:27:11.944Z,14.4
2022-10-16T16:30:15.309Z,14.1
2022-10-16T16:33:11.707Z,13.9
2022-10-16T16:36:18.354Z,13.6
2022-10-16T16:39:11.678Z,13.4
2022-10-16T16:42:11.691Z,13.1
2022-10-16T16:45:11.873Z,12.9
2022-10-16T16:48:11.779Z,12.6
2022-10-16T16:51:11.873Z,12.5
2022-10-16T16:54:11.714Z,12.4
2022-10-16T16:57:11.742Z,12.2
2022-10-16T17:00:12.028Z,12.1
2022-10-16T17:03:11.756Z,12.1
2022-10-16T17:06:11.792Z,12
2022-10-16T17:09:11.783Z,11.9
2022-10-16T17:12:11.738Z,11.8
2022-10-16T17:15:11.864Z,11.8
2022-10-16T17:18:11.943Z,11.6
2022-10-16T17:21:11.775Z,11.5
2022-10-16T17:24:11.741Z,11.5
2022-10-16T17:27:11.685Z,11.4
2022-10-16T17:30:11.778Z,11.4
2022-10-16T17:33:11.661Z,11.4
2022-10-16T17:36:11.695Z,11.4
2022-10-16T17:39:11.696Z,11.4
2022-10-16T17:42:11.688Z,11.4
2022-10-16T17:45:11.660Z,11.4
2022-10-16T17:48:11.724Z,11.5
2022-10-16T17:51:11.673Z,11.6
2022-10-16T17:54:11.702Z,11.6
2022-10-16T17:57:11.634Z,11.6
2022-10-16T18:00:11.910Z,11.6
2022-10-16T18:03:11.719Z,11.6
2022-10-16T18:06:11.721Z,11.6
2022-10-16T18:09:11.597Z,11.6
2022-10-16T18:12:11.634Z,11.6
2022-10-16T18:15:11.741Z,11.5
2022-10-16T18:18:11.648Z,11.5
2022-10-16T18:21:11.704Z,11.5
2022-10-16T18:24:11.629Z,11.5
2022-10-16T18:27:11.741Z,11.5
2022-10-16T18:30:11.712Z,11.5
2022-10-16T18:33:11.708Z,11.5
2022-10-16T18:36:11.673Z,11.5
2022-10-16T18:39:11.797Z,11.5
2022-10-16T18:42:11.705Z,11.5
2022-10-16T18:45:11.697Z,11.6
2022-10-16T18:48:11.709Z,11.6
2022-10-16T18:51:11.615Z,11.6
2022-10-16T18:54:11.666Z,11.8
2022-10-16T18:57:11.672Z,11.9
2022-10-16T19:00:11.720Z,11.9
2022-10-16T19:03:11.709Z,12
2022-10-16T19:06:11.713Z,12.1
2022-10-16T19:09:11.640Z,12.1
2022-10-16T19:12:11.677Z,12.1
2022-10-16T19:15:11.643Z,12.1
2022-10-16T19:18:11.688Z,12.1
2022-10-16T19:21:11.798Z,12.1
2022-10-16T19:24:11.698Z,12
2022-10-16T19:27:11.636Z,12
2022-10-16T19:33:11.714Z,12
2022-10-16T19:36:11.643Z,12
2022-10-16T19:39:11.972Z,12
2022-10-16T19:42:11.680Z,11.9
2022-10-16T19:45:11.730Z,11.9
2022-10-16T19:48:11.688Z,11.9
2022-10-16T19:51:11.642Z,11.8
2022-10-16T19:54:11.658Z,11.8
2022-10-16T19:57:11.721Z,11.8
2022-10-16T20:00:11.721Z,11.8
2022-10-16T20:03:11.722Z,11.9
2022-10-16T20:06:11.663Z,11.9
2022-10-16T20:09:11.720Z,11.9
2022-10-16T20:12:11.685Z,11.9
2022-10-16T20:15:11.671Z,11.9
2022-10-16T20:18:11.720Z,12
2022-10-16T20:21:11.655Z,12
2022-10-16T20:24:11.776Z,12.1
2022-10-16T20:27:11.664Z,12.1
2022-10-16T20:30:11.679Z,12.1
2022-10-16T20:33:11.718Z,12.2
2022-10-16T20:36:11.669Z,12.2
2022-10-16T20:39:11.690Z,12.4
2022-10-16T20:42:11.679Z,12.5
2022-10-16T20:45:11.921Z,12.5
2022-10-16T20:48:11.657Z,12.6
2022-10-16T20:51:11.711Z,12.8
2022-10-16T20:54:11.675Z,12.8
2022-10-16T20:57:11.656Z,12.9
2022-10-16T21:00:11.655Z,12.9
2022-10-16T21:03:11.657Z,13
2022-10-16T21:06:11.728Z,13
2022-10-16T21:09:11.645Z,13
2022-10-16T21:12:11.641Z,13.1
2022-10-16T21:15:26.554Z,13.1
2022-10-16T21:18:11.715Z,13.1
2022-10-16T21:21:11.646Z,13.3
2022-10-16T21:24:16.724Z,13.3
2022-10-16T21:27:11.659Z,13.4
2022-10-16T21:30:11.742Z,13.4
2022-10-16T21:33:11.691Z,13.5
2022-10-16T21:36:11.641Z,13.5
2022-10-16T21:39:11.667Z,13.5
2022-10-16T21:42:11.643Z,13.4
2022-10-16T21:45:11.700Z,13.3
2022-10-16T21:48:11.730Z,13.1
2022-10-16T21:51:11.680Z,13.1
2022-10-16T21:54:11.682Z,13
2022-10-16T21:57:11.815Z,13
2022-10-16T22:00:18.163Z,13
2022-10-16T22:03:11.819Z,13
2022-10-16T22:06:18.172Z,13
2022-10-16T22:09:11.840Z,13
2022-10-16T22:12:11.700Z,13
2022-10-16T22:15:11.910Z,13
2022-10-16T22:18:11.668Z,13
2022-10-16T22:21:11.679Z,13.1
2022-10-16T22:24:11.674Z,13.1
2022-10-16T22:27:11.668Z,13.1
2022-10-16T22:30:11.689Z,13.3
2022-10-16T22:33:11.653Z,13.3
2022-10-16T22:36:11.776Z,13.3
2022-10-16T22:39:11.675Z,13.3
2022-10-16T22:42:11.714Z,13.3
2022-10-16T22:45:11.690Z,13.3
2022-10-16T22:48:11.666Z,13.3
2022-10-16T22:51:14.153Z,13.3
2022-10-16T22:54:11.642Z,13.3
2022-10-16T22:57:11.678Z,13.1
2022-10-16T23:00:11.735Z,13.1
2022-10-16T23:03:12.004Z,13
2022-10-16T23:06:11.701Z,13
2022-10-16T23:09:11.656Z,13
2022-10-16T23:12:11.664Z,13
2022-10-16T23:15:11.745Z,13
2022-10-16T23:18:11.702Z,13.1
2022-10-16T23:21:11.680Z,13.1
2022-10-16T23:24:11.653Z,13.3
2022-10-16T23:27:11.673Z,13.3
2022-10-16T23:30:11.667Z,13.3
2022-10-16T23:33:11.694Z,13.1
2022-10-16T23:36:11.677Z,13
2022-10-16T23:39:11.692Z,12.9
2022-10-16T23:42:11.702Z,12.8
2022-10-16T23:45:11.595Z,12.8
2022-10-16T23:48:11.690Z,12.6
2022-10-16T23:51:11.670Z,12.5
2022-10-16T23:54:11.658Z,12.6
2022-10-16T23:57:11.658Z,12.5
